Time;durP1;ratioP1;P1;durP2;ratioP2;P2;SDS_P1;SDS_P2;PMS_P1;PMS_P2;Temp;Humidity;BMP_temperature;BMP_pressure;BME280_temperature;BME280_humidity;BME280_pressure;Samples;Min_cycle;Max_cycle;Signal;HPM_P1;HPM_P2
2024/01/22 00:02:05;;;;;;;;;;;;;;;;;;5016379;28;19957;-27
2024/01/22 00:04:31;;;;;;;;;;;;;;;;;;5016157;28;20340;-25
2024/01/22 00:06:57;;;;;;;;;;;;;;;;;;5016378;28;19936;-27
2024/01/22 00:09:23;;;;;;;;;;;;;;;;;;5016375;28;20305;-27
2024/01/22 00:11:49;;;;;;;;;;;;;;;;;;5016144;28;19914;-27
2024/01/22 00:14:15;;;;;;;;;;;;;;;;;;5016132;28;19996;-27
2024/01/22 00:16:41;;;;;;;;;;;;;;;;;;5016137;28;19921;-27
2024/01/22 00:19:07;;;;;;;;;;;;;;;;;;5016403;28;20329;-25
2024/01/22 00:21:32;;;;;;;;;;;;;;;;;;5016101;28;20292;-30
2024/01/22 00:23:58;;;;;;;;;;;;;;;;;;5016191;28;19917;-26
2024/01/22 00:26:24;;;;;;;;;;;;;;;;;;5016260;28;19997;-26
2024/01/22 00:28:50;;;;;;;;;;;;;;;;;;5015897;28;19969;-26
2024/01/22 00:31:16;;;;;;;;;;;;;;;;;;5015957;28;19968;-28
2024/01/22 00:33:42;;;;;;;;;;;;;;;;;;5016073;28;19960;-26
2024/01/22 00:36:08;;;;;;;;;;;;;;;;;;5015898;28;19916;-27
2024/01/22 00:38:34;;;;;;;;;;;;;;;;;;5015815;28;19917;-24
2024/01/22 00:41:00;;;;;;;;;;;;;;;;;;5015782;28;20344;-27
2024/01/22 00:43:26;;;;;;;;;;;;;;;;;;5014662;28;19940;-23
2024/01/22 00:45:52;;;;;;;;;;;;;;;;;;5015725;28;19966;-27
2024/01/22 00:48:18;;;;;;;;;;;;;;;;;;5015881;28;19909;-24
2024/01/22 00:50:44;;;;;;;;;;;;;;;;;;5015590;28;19978;-24
2024/01/22 00:53:10;;;;;;;;;;;;;;;;;;5015749;28;20329;-26
2024/01/22 00:55:36;;;;;;;;;;;;;;;;;;5015547;28;20371;-28
2024/01/22 00:58:02;;;;;;;;;;;;;;;;;;5015688;28;19909;-25
2024/01/22 01:00:28;;;;;;;;;;;;;;;;;;5015412;28;20222;-26
2024/01/22 01:02:54;;;;;;;;;;;;;;;;;;5014008;28;20308;-27
2024/01/22 01:05:20;;;;;;;;;;;;;;;;;;5015582;28;19996;-26
2024/01/22 01:07:46;;;;;;;;;;;;;;;;;;5015218;28;19936;-30
2024/01/22 01:10:11;;;;;;;;;;;;;;;;;;5015496;28;19910;-27
2024/01/22 01:12:37;;;;;;;;;;;;;;;;;;5014154;28;19917;-30
2024/01/22 01:15:03;;;;;;;;;;;;;;;;;;5015563;28;19910;-33
2024/01/22 01:17:30;;;;;;;;;;;;;;;;;;5015465;28;20296;-27
2024/01/22 01:19:55;;;;;;;;;;;;;;;;;;5015163;28;19913;-28
2024/01/22 01:22:21;;;;;;;;;;;;;;;;;;5015455;28;20067;-30
2024/01/22 01:24:47;;;;;;;;;;;;;;;;;;5014065;28;20029;-28
2024/01/22 01:27:13;;;;;;;;;;;;;;;;;;5015788;28;19910;-27
2024/01/22 01:29:39;;;;;;;;;;;;;;;;;;5014020;28;20337;-30
2024/01/22 01:32:05;;;;;;;;;;;;;;;;;;5015111;28;19917;-27
2024/01/22 01:34:31;;;;;;;;;;;;;;;;;;5015181;28;19909;-25
2024/01/22 01:36:57;;;;;;;;;;;;;;;;;;5014958;28;19971;-24
2024/01/22 01:39:23;;;;;;;;;;;;;;;;;;5014849;28;19916;-26
2024/01/22 01:41:49;;;;;;;;;;;;;;;;;;5014821;28;19917;-23
2024/01/22 01:44:15;;;;;;;;;;;;;;;;;;5014934;28;20017;-27
2024/01/22 01:46:41;;;;;;;;;;;;;;;;;;5015067;28;19910;-23
2024/01/22 01:49:07;;;;;;;;;;;;;;;;;;5014781;28;19923;-25
2024/01/22 01:51:33;;;;;;;;;;;;;;;;;;5014684;28;20333;-24
2024/01/22 01:53:59;;;;;;;;;;;;;;;;;;5015345;28;19998;-30
2024/01/22 01:56:25;;;;;;;;;;;;;;;;;;5014748;28;19910;-27
2024/01/22 01:58:51;;;;;;;;;;;;;;;;;;5014983;28;19960;-26
2024/01/22 02:01:17;;;;;;;;;;;;;;;;;;5014991;28;20355;-23
2024/01/22 02:03:43;;;;;;;;;;;;;;;;;;5013361;28;20007;-29
2024/01/22 02:06:09;;;;;;;;;;;;;;;;;;5014898;28;19953;-23
2024/01/22 02:08:35;;;;;;;;;;;;;;;;;;5014899;28;20332;-27
2024/01/22 02:11:00;;;;;;;;;;;;;;;;;;5014661;28;20360;-26
2024/01/22 02:13:28;;;;;;;;;;;;;;;;;;5014490;28;20337;-26
2024/01/22 02:15:54;;;;;;;;;;;;;;;;;;5014619;28;20004;-24
2024/01/22 02:18:20;;;;;;;;;;;;;;;;;;5014538;28;19969;-27
2024/01/22 02:20:46;;;;;;;;;;;;;;;;;;5014754;28;19910;-26
2024/01/22 02:23:12;;;;;;;;;;;;;;;;;;5014301;28;19964;-24
2024/01/22 02:25:38;;;;;;;;;;;;;;;;;;5014436;28;20261;-25
2024/01/22 02:28:04;;;;;;;;;;;;;;;;;;5014321;28;19961;-27
2024/01/22 02:30:30;;;;;;;;;;;;;;;;;;5014694;28;19913;-24
2024/01/22 02:32:56;;;;;;;;;;;;;;;;;;5014353;28;20008;-25
2024/01/22 02:35:22;;;;;;;;;;;;;;;;;;5016535;28;19909;-24
2024/01/22 02:37:48;;;;;;;;;;;;;;;;;;5018307;28;19921;-26
2024/01/22 02:40:14;;;;;;;;;;;;;;;;;;5018010;28;20007;-23
2024/01/22 02:42:40;;;;;;;;;;;;;;;;;;5016918;28;19926;-23
2024/01/22 02:45:07;;;;;;;;;;;;;;;;;;5017902;28;19914;-28
2024/01/22 02:47:34;;;;;;;;;;;;;;;;;;5018144;28;19920;-29
2024/01/22 02:50:00;;;;;;;;;;;;;;;;;;5017746;28;20000;-23
2024/01/22 02:52:26;;;;;;;;;;;;;;;;;;5017968;28;19945;-27
2024/01/22 02:54:52;;;;;;;;;;;;;;;;;;5018053;28;19909;-24
2024/01/22 02:57:18;;;;;;;;;;;;;;;;;;5017980;28;19910;-27
2024/01/22 02:59:44;;;;;;;;;;;;;;;;;;5017634;28;19971;-24
2024/01/22 03:02:10;;;;;;;;;;;;;;;;;;5017563;28;20444;-31
2024/01/22 03:04:36;;;;;;;;;;;;;;;;;;5017478;28;19922;-24
2024/01/22 03:07:04;;;;;;;;;;;;;;;;;;5017990;28;20214;-25
2024/01/22 03:09:30;;;;;;;;;;;;;;;;;;5017907;28;19972;-23
2024/01/22 03:11:56;;;;;;;;;;;;;;;;;;5017719;28;19929;-24
2024/01/22 03:14:22;;;;;;;;;;;;;;;;;;5017417;28;20263;-24
2024/01/22 03:16:48;;;;;;;;;;;;;;;;;;5017393;28;19906;-30
2024/01/22 03:19:14;;;;;;;;;;;;;;;;;;5017345;28;19959;-25
2024/01/22 03:21:40;;;;;;;;;;;;;;;;;;5017228;28;19964;-29
2024/01/22 03:24:06;;;;;;;;;;;;;;;;;;5017341;28;19918;-30
2024/01/22 03:26:32;;;;;;;;;;;;;;;;;;5017163;28;19910;-27
2024/01/22 03:28:58;;;;;;;;;;;;;;;;;;5017060;28;19910;-26
2024/01/22 03:31:24;;;;;;;;;;;;;;;;;;5017116;28;20268;-26
2024/01/22 03:33:50;;;;;;;;;;;;;;;;;;5017001;28;19916;-23
2024/01/22 03:36:16;;;;;;;;;;;;;;;;;;5017272;28;19964;-24
2024/01/22 03:38:42;;;;;;;;;;;;;;;;;;5016907;28;20257;-24
2024/01/22 03:41:08;;;;;;;;;;;;;;;;;;5016908;28;19969;-24
2024/01/22 03:43:34;;;;;;;;;;;;;;;;;;5016946;28;19913;-25
2024/01/22 03:46:00;;;;;;;;;;;;;;;;;;5016365;28;19909;-24
2024/01/22 03:48:26;;;;;;;;;;;;;;;;;;5017010;28;20004;-23
2024/01/22 03:50:52;;;;;;;;;;;;;;;;;;5015773;28;19964;-28
2024/01/22 03:53:18;;;;;;;;;;;;;;;;;;5016706;28;19969;-29
2024/01/22 03:55:44;;;;;;;;;;;;;;;;;;5016851;28;19910;-35
2024/01/22 03:58:11;;;;;;;;;;;;;;;;;;5016508;28;19921;-26
2024/01/22 04:00:37;;;;;;;;;;;;;;;;;;5016472;28;19910;-24
2024/01/22 04:03:03;;;;;;;;;;;;;;;;;;5016023;28;19922;-24
2024/01/22 04:05:29;;;;;;;;;;;;;;;;;;5016345;28;19991;-25
2024/01/22 04:07:55;;;;;;;;;;;;;;;;;;5016593;28;19973;-24
2024/01/22 04:10:21;;;;;;;;;;;;;;;;;;5016316;28;20233;-29
2024/01/22 04:12:47;;;;;;;;;;;;;;;;;;5016155;28;19909;-25
2024/01/22 04:15:13;;;;;;;;;;;;;;;;;;5016136;28;20004;-30
2024/01/22 04:17:39;;;;;;;;;;;;;;;;;;5016086;28;19913;-29
2024/01/22 04:20:06;;;;;;;;;;;;;;;;;;5016111;28;19910;-30
2024/01/22 04:22:32;;;;;;;;;;;;;;;;;;5015950;28;19914;-23
2024/01/22 04:24:58;;;;;;;;;;;;;;;;;;5016012;28;19913;-27
2024/01/22 04:27:24;;;;;;;;;;;;;;;;;;5016326;28;19909;-25
2024/01/22 04:29:50;;;;;;;;;;;;;;;;;;5016086;28;20297;-23
2024/01/22 04:32:16;;;;;;;;;;;;;;;;;;5015829;28;20264;-24
2024/01/22 04:34:42;;;;;;;;;;;;;;;;;;5015859;28;20025;-24
2024/01/22 04:37:08;;;;;;;;;;;;;;;;;;5015816;28;19913;-30
2024/01/22 04:39:34;;;;;;;;;;;;;;;;;;5015795;28;20230;-24
2024/01/22 04:42:00;;;;;;;;;;;;;;;;;;5015575;28;19935;-27
2024/01/22 04:44:28;;;;;;;;;;;;;;;;;;5015547;28;20000;-23
2024/01/22 04:46:54;;;;;;;;;;;;;;;;;;5015606;28;20044;-27
2024/01/22 04:49:20;;;;;;;;;;;;;;;;;;5015567;28;20341;-25
2024/01/22 04:51:46;;;;;;;;;;;;;;;;;;5015546;28;20348;-27
2024/01/22 04:54:12;;;;;;;;;;;;;;;;;;5015309;28;20237;-24
2024/01/22 04:56:38;;;;;;;;;;;;;;;;;;5015153;28;20326;-26
2024/01/22 04:59:04;;;;;;;;;;;;;;;;;;5015103;28;20263;-23
2024/01/22 05:04:06;;;;;;;;;;;;;;;;;;5013521;23;19925;-21
2024/01/22 05:06:32;;;;;;;;;;;;;;;;;;5014282;28;19914;-22
2024/01/22 05:08:58;;;;;;;;;;;;;;;;;;5015239;28;19975;-22
2024/01/22 05:11:24;;;;;;;;;;;;;;;;;;5014011;28;20264;-21
2024/01/22 05:13:50;;;;;;;;;;;;;;;;;;5032713;28;19909;-21
2024/01/22 05:16:16;;;;;;;;;;;;;;;;;;5034685;28;19910;-22
2024/01/22 05:18:42;;;;;;;;;;;;;;;;;;5034598;28;19920;-22
2024/01/22 05:21:08;;;;;;;;;;;;;;;;;;5033431;28;19910;-24
2024/01/22 05:23:34;;;;;;;;;;;;;;;;;;5034342;28;20358;-21
2024/01/22 05:26:00;;;;;;;;;;;;;;;;;;5034486;28;19909;-20
2024/01/22 05:28:26;;;;;;;;;;;;;;;;;;5034859;28;19916;-21
2024/01/22 05:30:52;;;;;;;;;;;;;;;;;;5033554;28;19976;-23
2024/01/22 05:33:18;;;;;;;;;;;;;;;;;;5034485;28;19913;-21
2024/01/22 05:35:44;;;;;;;;;;;;;;;;;;5034359;28;20068;-21
2024/01/22 05:38:10;;;;;;;;;;;;;;;;;;5034493;28;20362;-22
2024/01/22 05:40:36;;;;;;;;;;;;;;;;;;5034470;28;19909;-22
2024/01/22 05:43:02;;;;;;;;;;;;;;;;;;5034280;28;19920;-22
2024/01/22 05:45:28;;;;;;;;;;;;;;;;;;5034173;28;20340;-21
2024/01/22 05:47:54;;;;;;;;;;;;;;;;;;5034533;28;19916;-21
2024/01/22 05:50:20;;;;;;;;;;;;;;;;;;5034326;28;19932;-21
2024/01/22 05:52:46;;;;;;;;;;;;;;;;;;5034445;28;20304;-22
2024/01/22 05:55:12;;;;;;;;;;;;;;;;;;5034450;28;20352;-22
2024/01/22 05:57:38;;;;;;;;;;;;;;;;;;5034136;28;20352;-22
2024/01/22 06:00:12;;;;;;;;;;;;;;;;;;5034253;28;20008;-21
2024/01/22 06:02:38;;;;;;;;;;;;;;;;;;5033731;28;20362;-22
2024/01/22 06:05:04;;;;;;;;;;;;;;;;;;5034289;28;20011;-21
2024/01/22 06:07:30;;;;;;;;;;;;;;;;;;5034109;28;19908;-21
2024/01/22 06:09:56;;;;;;;;;;;;;;;;;;5036268;28;19975;-22
2024/01/22 06:12:22;;;;;;;;;;;;;;;;;;5037919;28;19917;-21
2024/01/22 06:14:48;;;;;;;;;;;;;;;;;;5036914;28;19982;-21
2024/01/22 06:17:14;;;;;;;;;;;;;;;;;;5038241;28;19937;-21
2024/01/22 06:19:40;;;;;;;;;;;;;;;;;;5038348;28;19910;-32
2024/01/22 06:22:06;;;;;;;;;;;;;;;;;;5037962;28;20004;-21
2024/01/22 06:24:35;;;;;;;;;;;;;;;;;;5037644;28;19913;-22
2024/01/22 06:27:01;;;;;;;;;;;;;;;;;;5037796;28;19913;-22
2024/01/22 06:29:27;;;;;;;;;;;;;;;;;;5037699;28;19909;-20
2024/01/22 06:31:53;;;;;;;;;;;;;;;;;;5036695;28;20267;-20
2024/01/22 06:34:20;;;;;;;;;;;;;;;;;;5037882;28;19909;-20
2024/01/22 06:36:46;;;;;;;;;;;;;;;;;;5037495;28;19909;-20
2024/01/22 06:39:12;;;;;;;;;;;;;;;;;;5037648;28;19920;-22
2024/01/22 06:41:38;;;;;;;;;;;;;;;;;;5037612;28;19948;-21
2024/01/22 06:44:04;;;;;;;;;;;;;;;;;;5037204;28;19925;-24
2024/01/22 06:46:30;;;;;;;;;;;;;;;;;;5037635;28;20004;-21
2024/01/22 06:48:56;;;;;;;;;;;;;;;;;;5038124;28;19968;-21
2024/01/22 06:51:25;;;;;;;;;;;;;;;;;;5037375;28;19984;-22
2024/01/22 06:53:51;;;;;;;;;;;;;;;;;;5036173;28;19909;-21
2024/01/22 06:56:17;;;;;;;;;;;;;;;;;;5037262;28;20008;-21
2024/01/22 06:58:43;;;;;;;;;;;;;;;;;;5037060;28;19909;-21
2024/01/22 07:01:09;;;;;;;;;;;;;;;;;;5036868;28;19936;-20
2024/01/22 07:03:38;;;;;;;;;;;;;;;;;;5036364;28;19957;-22
2024/01/22 07:06:04;;;;;;;;;;;;;;;;;;5035875;28;19978;-22
2024/01/22 07:08:30;;;;;;;;;;;;;;;;;;5036767;28;20351;-21
2024/01/22 07:10:56;;;;;;;;;;;;;;;;;;5036837;28;19913;-22
2024/01/22 07:13:22;;;;;;;;;;;;;;;;;;5036460;28;19931;-22
2024/01/22 07:15:48;;;;;;;;;;;;;;;;;;5035933;28;19909;-22
2024/01/22 07:18:14;;;;;;;;;;;;;;;;;;5034564;28;19920;-22
2024/01/22 07:20:40;;;;;;;;;;;;;;;;;;5033986;28;19910;-20
2024/01/22 07:23:07;;;;;;;;;;;;;;;;;;5035755;28;19917;-21
2024/01/22 07:25:36;;;;;;;;;;;;;;;;;;5035666;28;19917;-21
2024/01/22 07:28:02;;;;;;;;;;;;;;;;;;5035690;28;19920;-21
2024/01/22 07:30:28;;;;;;;;;;;;;;;;;;5035032;28;19917;-21
2024/01/22 07:32:54;;;;;;;;;;;;;;;;;;5036009;28;20328;-21
2024/01/22 07:35:20;;;;;;;;;;;;;;;;;;5035738;28;19909;-20
2024/01/22 07:37:46;;;;;;;;;;;;;;;;;;5036215;28;19955;-20
2024/01/22 07:40:12;;;;;;;;;;;;;;;;;;5035323;28;19909;-21
2024/01/22 07:42:44;;;;;;;;;;;;;;;;;;5036259;28;20281;-21
2024/01/22 07:45:10;;;;;;;;;;;;;;;;;;5036079;28;20004;-23
2024/01/22 07:47:36;;;;;;;;;;;;;;;;;;5036155;28;19909;-22
2024/01/22 07:50:05;;;;;;;;;;;;;;;;;;5036388;28;19913;-20
2024/01/22 07:52:31;;;;;;;;;;;;;;;;;;5036102;28;19909;-21
2024/01/22 07:54:57;;;;;;;;;;;;;;;;;;5036138;28;19960;-21
2024/01/22 07:57:23;;;;;;;;;;;;;;;;;;5036190;28;20295;-21
2024/01/22 07:59:49;;;;;;;;;;;;;;;;;;5036304;28;19932;-21
2024/01/22 08:02:16;;;;;;;;;;;;;;;;;;5034437;28;19909;-20
2024/01/22 08:04:42;;;;;;;;;;;;;;;;;;5036074;28;20294;-20
2024/01/22 08:07:08;;;;;;;;;;;;;;;;;;5035911;28;19909;-20
2024/01/22 08:09:34;;;;;;;;;;;;;;;;;;5035771;28;20412;-22
2024/01/22 08:12:00;;;;;;;;;;;;;;;;;;5035698;28;19996;-22
2024/01/22 08:14:26;;;;;;;;;;;;;;;;;;5035706;28;19948;-21
2024/01/22 08:16:52;;;;;;;;;;;;;;;;;;5035664;28;19909;-21
2024/01/22 08:19:18;;;;;;;;;;;;;;;;;;5035597;28;19966;-21
2024/01/22 08:21:45;;;;;;;;;;;;;;;;;;5035462;28;19909;-20
2024/01/22 08:24:11;;;;;;;;;;;;;;;;;;5035435;28;19970;-21
2024/01/22 08:26:36;;;;;;;;;;;;;;;;;;5035548;28;19909;-22
2024/01/22 08:29:02;;;;;;;;;;;;;;;;;;5035667;28;19909;-23
2024/01/22 08:31:28;;;;;;;;;;;;;;;;;;5035324;28;19916;-22
2024/01/22 08:33:56;;;;;;;;;;;;;;;;;;5035263;28;19959;-21
2024/01/22 08:36:22;;;;;;;;;;;;;;;;;;5035765;28;19909;-22
2024/01/22 08:38:48;;;;;;;;;;;;;;;;;;5035258;28;19909;-21
2024/01/22 08:41:14;;;;;;;;;;;;;;;;;;5035220;28;19932;-21
2024/01/22 08:43:40;;;;;;;;;;;;;;;;;;5035432;28;20008;-22
2024/01/22 08:46:06;;;;;;;;;;;;;;;;;;5035020;28;19948;-22
2024/01/22 08:48:32;;;;;;;;;;;;;;;;;;5034927;28;19913;-21
2024/01/22 08:50:58;;;;;;;;;;;;;;;;;;5035000;28;19962;-22
2024/01/22 08:53:24;;;;;;;;;;;;;;;;;;5035013;28;19992;-22
2024/01/22 08:55:50;;;;;;;;;;;;;;;;;;5035052;28;20415;-24
2024/01/22 08:58:16;;;;;;;;;;;;;;;;;;5035694;28;19921;-21
2024/01/22 09:00:42;;;;;;;;;;;;;;;;;;5033795;28;19913;-22
2024/01/22 09:03:08;;;;;;;;;;;;;;;;;;5034769;28;19917;-20
2024/01/22 09:05:34;;;;;;;;;;;;;;;;;;5034797;28;19909;-21
2024/01/22 09:08:00;;;;;;;;;;;;;;;;;;5034722;28;19909;-20
2024/01/22 09:10:26;;;;;;;;;;;;;;;;;;5033518;28;19909;-21
2024/01/22 09:12:52;;;;;;;;;;;;;;;;;;5034657;28;20020;-22
2024/01/22 09:15:18;;;;;;;;;;;;;;;;;;5033368;28;20367;-22
2024/01/22 09:17:44;;;;;;;;;;;;;;;;;;5034293;28;19909;-22
2024/01/22 09:20:11;;;;;;;;;;;;;;;;;;5034579;28;20217;-22
2024/01/22 09:22:37;;;;;;;;;;;;;;;;;;5033084;28;19967;-21
2024/01/22 09:25:03;;;;;;;;;;;;;;;;;;5034161;28;19913;-21
2024/01/22 09:27:29;;;;;;;;;;;;;;;;;;5033955;28;19996;-23
2024/01/22 09:30:04;;;;;;;;;;;;;;;;;;5033943;28;20067;-24
2024/01/22 09:32:29;;;;;;;;;;;;;;;;;;5033845;28;19909;-21
2024/01/22 09:34:55;;;;;;;;;;;;;;;;;;5033964;28;19927;-21
2024/01/22 09:37:21;;;;;;;;;;;;;;;;;;5034620;28;19913;-21
2024/01/22 09:39:49;;;;;;;;;;;;;;;;;;5033876;28;20043;-23
2024/01/22 09:42:15;;;;;;;;;;;;;;;;;;5032641;28;20296;-23
2024/01/22 09:44:41;;;;;;;;;;;;;;;;;;5033016;28;20003;-22
2024/01/22 09:47:07;;;;;;;;;;;;;;;;;;5033609;28;19909;-23
2024/01/22 09:49:33;;;;;;;;;;;;;;;;;;5032408;28;19909;-23
2024/01/22 09:51:59;;;;;;;;;;;;;;;;;;5033240;28;20310;-22
2024/01/22 09:54:25;;;;;;;;;;;;;;;;;;5033624;28;19956;-23
2024/01/22 09:56:52;;;;;;;;;;;;;;;;;;5033411;28;19980;-32
2024/01/22 09:59:18;;;;;;;;;;;;;;;;;;5033192;28;19909;-22
2024/01/22 10:01:44;;;;;;;;;;;;;;;;;;5033189;28;20303;-23
2024/01/22 10:04:10;;;;;;;;;;;;;;;;;;5031735;28;19921;-22
2024/01/22 10:06:36;;;;;;;;;;;;;;;;;;5033458;28;20255;-20
2024/01/22 10:09:02;;;;;;;;;;;;;;;;;;5033289;28;19913;-21
2024/01/22 10:11:28;;;;;;;;;;;;;;;;;;5032282;28;19941;-22
2024/01/22 10:13:56;;;;;;;;;;;;;;;;;;5033473;28;19952;-21
2024/01/22 10:16:22;;;;;;;;;;;;;;;;;;5032850;28;19917;-22
2024/01/22 10:18:48;;;;;;;;;;;;;;;;;;5033552;28;19982;-24
2024/01/22 10:21:14;;;;;;;;;;;;;;;;;;5033605;28;19913;-22
2024/01/22 10:23:40;;;;;;;;;;;;;;;;;;5033894;28;19913;-22
2024/01/22 10:26:06;;;;;;;;;;;;;;;;;;5033272;28;19909;-22
2024/01/22 10:28:32;;;;;;;;;;;;;;;;;;5034249;28;20275;-22
2024/01/22 10:30:58;;;;;;;;;;;;;;;;;;5033342;28;19960;-22
2024/01/22 10:33:24;;;;;;;;;;;;;;;;;;5033140;28;19913;-22
2024/01/22 10:35:50;;;;;;;;;;;;;;;;;;5033550;28;19955;-22
2024/01/22 10:38:19;;;;;;;;;;;;;;;;;;5033283;28;19909;-21
2024/01/22 10:40:45;;;;;;;;;;;;;;;;;;5033501;28;19909;-23
2024/01/22 10:43:11;;;;;;;;;;;;;;;;;;5033289;28;20011;-20
2024/01/22 10:45:37;;;;;;;;;;;;;;;;;;5033297;28;20316;-21
2024/01/22 10:48:03;;;;;;;;;;;;;;;;;;5033102;28;19917;-22
2024/01/22 10:50:29;;;;;;;;;;;;;;;;;;5033401;28;19909;-22
2024/01/22 10:52:55;;;;;;;;;;;;;;;;;;5033033;28;19924;-22
2024/01/22 10:55:21;;;;;;;;;;;;;;;;;;5033770;28;19909;-20
2024/01/22 10:57:47;;;;;;;;;;;;;;;;;;5036779;28;19929;-21
2024/01/22 11:00:14;;;;;;;;;;;;;;;;;;5035625;28;19920;-20
2024/01/22 11:02:40;;;;;;;;;;;;;;;;;;5036735;28;19921;-21
2024/01/22 11:05:06;;;;;;;;;;;;;;;;;;5036694;28;20433;-22
2024/01/22 11:07:32;;;;;;;;;;;;;;;;;;5036750;28;19963;-21
2024/01/22 11:09:59;;;;;;;;;;;;;;;;;;5036546;28;19913;-23
2024/01/22 11:12:25;;;;;;;;;;;;;;;;;;5036742;28;19992;-23
2024/01/22 11:14:51;;;;;;;;;;;;;;;;;;5036443;28;20355;-21
2024/01/22 11:17:18;;;;;;;;;;;;;;;;;;5036623;28;19909;-20
2024/01/22 11:19:44;;;;;;;;;;;;;;;;;;5035466;28;19909;-21
2024/01/22 11:22:10;;;;;;;;;;;;;;;;;;5036240;28;19918;-20
2024/01/22 11:24:36;;;;;;;;;;;;;;;;;;5035305;28;19949;-21
2024/01/22 11:27:02;;;;;;;;;;;;;;;;;;5035310;28;20039;-23
2024/01/22 11:29:29;;;;;;;;;;;;;;;;;;5036225;28;19909;-22
2024/01/22 11:31:54;;;;;;;;;;;;;;;;;;5036171;28;20316;-22
2024/01/22 11:34:20;;;;;;;;;;;;;;;;;;5036122;28;19909;-20
2024/01/22 11:36:46;;;;;;;;;;;;;;;;;;5035059;28;19963;-21
2024/01/22 11:39:12;;;;;;;;;;;;;;;;;;5036212;28;19967;-22
2024/01/22 11:41:40;;;;;;;;;;;;;;;;;;5035945;28;19909;-24
2024/01/22 11:44:06;;;;;;;;;;;;;;;;;;5035692;28;19913;-23
2024/01/22 11:46:32;;;;;;;;;;;;;;;;;;5034704;28;19921;-22
2024/01/22 11:48:58;;;;;;;;;;;;;;;;;;5035891;28;20366;-22
2024/01/22 11:51:24;;;;;;;;;;;;;;;;;;5035594;28;19972;-22
2024/01/22 11:53:51;;;;;;;;;;;;;;;;;;5035540;28;19996;-22
2024/01/22 11:56:17;;;;;;;;;;;;;;;;;;5036019;28;19990;-22
2024/01/22 11:58:43;;;;;;;;;;;;;;;;;;5035853;28;20007;-22
2024/01/22 12:01:12;;;;;;;;;;;;;;;;;;5035031;28;20295;-22
2024/01/22 12:03:38;;;;;;;;;;;;;;;;;;5034504;28;20396;-22
2024/01/22 12:06:07;;;;;;;;;;;;;;;;;;5033498;28;19963;-23
2024/01/22 12:08:33;;;;;;;;;;;;;;;;;;5034714;28;19909;-21
2024/01/22 12:10:59;;;;;;;;;;;;;;;;;;5033630;28;19913;-21
2024/01/22 12:13:25;;;;;;;;;;;;;;;;;;5033574;28;19909;-22
2024/01/22 12:15:51;;;;;;;;;;;;;;;;;;5034538;28;19991;-21
2024/01/22 12:18:17;;;;;;;;;;;;;;;;;;5034589;28;19952;-22
2024/01/22 12:20:43;;;;;;;;;;;;;;;;;;5033375;28;19909;-20
2024/01/22 12:23:09;;;;;;;;;;;;;;;;;;5034656;28;20370;-21
2024/01/22 12:25:35;;;;;;;;;;;;;;;;;;5035121;28;19948;-22
2024/01/22 12:28:01;;;;;;;;;;;;;;;;;;5034976;28;19920;-24
2024/01/22 12:30:27;;;;;;;;;;;;;;;;;;5035089;28;19909;-22
2024/01/22 12:32:53;;;;;;;;;;;;;;;;;;5034880;28;20362;-21
2024/01/22 12:35:19;;;;;;;;;;;;;;;;;;5034882;28;19916;-20
2024/01/22 12:37:45;;;;;;;;;;;;;;;;;;5035037;28;19913;-20
2024/01/22 12:40:14;;;;;;;;;;;;;;;;;;5034826;28;19909;-22
2024/01/22 12:42:40;;;;;;;;;;;;;;;;;;5033485;28;19921;-20
2024/01/22 12:45:06;;;;;;;;;;;;;;;;;;5035021;28;19935;-21
2024/01/22 12:47:33;;;;;;;;;;;;;;;;;;5033289;28;19992;-22
2024/01/22 12:49:59;;;;;;;;;;;;;;;;;;5034380;28;19947;-22
2024/01/22 12:52:25;;;;;;;;;;;;;;;;;;5034542;28;19921;-22
2024/01/22 12:54:51;;;;;;;;;;;;;;;;;;5034594;28;19920;-21
2024/01/22 12:57:17;;;;;;;;;;;;;;;;;;5034191;28;19913;-22
2024/01/22 12:59:43;;;;;;;;;;;;;;;;;;5034509;28;19928;-21
2024/01/22 13:02:10;;;;;;;;;;;;;;;;;;5034028;28;19916;-21
2024/01/22 13:04:36;;;;;;;;;;;;;;;;;;5034308;28;19924;-21
2024/01/22 13:07:02;;;;;;;;;;;;;;;;;;5034323;28;20316;-23
2024/01/22 13:09:28;;;;;;;;;;;;;;;;;;5034373;28;20050;-23
2024/01/22 13:11:54;;;;;;;;;;;;;;;;;;5034474;28;19920;-22
2024/01/22 13:14:20;;;;;;;;;;;;;;;;;;5034493;28;20351;-22
2024/01/22 13:16:46;;;;;;;;;;;;;;;;;;5034370;28;19945;-21
2024/01/22 13:19:12;;;;;;;;;;;;;;;;;;5033678;28;19913;-21
2024/01/22 13:21:38;;;;;;;;;;;;;;;;;;5034313;28;20343;-22
2024/01/22 13:24:04;;;;;;;;;;;;;;;;;;5034210;28;20001;-22
2024/01/22 13:26:30;;;;;;;;;;;;;;;;;;5034406;28;19909;-22
2024/01/22 13:28:56;;;;;;;;;;;;;;;;;;5033258;28;19947;-21
2024/01/22 13:31:21;;;;;;;;;;;;;;;;;;5034258;28;19913;-20
2024/01/22 13:33:48;;;;;;;;;;;;;;;;;;5033050;28;19909;-22
2024/01/22 13:36:14;;;;;;;;;;;;;;;;;;5033048;28;20004;-22
2024/01/22 13:38:41;;;;;;;;;;;;;;;;;;5032867;28;19922;-22
2024/01/22 13:41:07;;;;;;;;;;;;;;;;;;5033973;28;20248;-22
2024/01/22 13:43:33;;;;;;;;;;;;;;;;;;5033731;28;19979;-24
2024/01/22 13:46:00;;;;;;;;;;;;;;;;;;5032788;28;20256;-23
2024/01/22 13:48:26;;;;;;;;;;;;;;;;;;5032534;28;19909;-22
2024/01/22 13:50:52;;;;;;;;;;;;;;;;;;5034022;28;19913;-21
2024/01/22 13:53:19;;;;;;;;;;;;;;;;;;5034101;28;19909;-21
2024/01/22 13:55:44;;;;;;;;;;;;;;;;;;5034012;28;19953;-21
2024/01/22 13:58:11;;;;;;;;;;;;;;;;;;5033936;28;20000;-22
2024/01/22 14:00:37;;;;;;;;;;;;;;;;;;5033935;28;19909;-22
2024/01/22 14:03:04;;;;;;;;;;;;;;;;;;5033729;28;19928;-23
2024/01/22 14:05:30;;;;;;;;;;;;;;;;;;5033054;28;19924;-22
2024/01/22 14:07:56;;;;;;;;;;;;;;;;;;5033017;28;20333;-23
2024/01/22 14:10:22;;;;;;;;;;;;;;;;;;5032866;28;19952;-23
2024/01/22 14:12:48;;;;;;;;;;;;;;;;;;5034012;28;19982;-22
2024/01/22 14:15:14;;;;;;;;;;;;;;;;;;5034056;28;19920;-21
2024/01/22 14:17:40;;;;;;;;;;;;;;;;;;5032982;28;20340;-22
2024/01/22 14:20:09;;;;;;;;;;;;;;;;;;5033979;28;19909;-23
2024/01/22 14:22:36;;;;;;;;;;;;;;;;;;5033313;28;19913;-21
2024/01/22 14:25:02;;;;;;;;;;;;;;;;;;5032880;28;19967;-21
2024/01/22 14:27:28;;;;;;;;;;;;;;;;;;5032837;28;19952;-21
2024/01/22 14:29:54;;;;;;;;;;;;;;;;;;5035480;28;19910;-22
2024/01/22 14:32:20;;;;;;;;;;;;;;;;;;5037674;28;19916;-22
2024/01/22 14:34:46;;;;;;;;;;;;;;;;;;5036595;28;19935;-20
2024/01/22 14:37:12;;;;;;;;;;;;;;;;;;5037857;28;19988;-22
2024/01/22 14:39:38;;;;;;;;;;;;;;;;;;5037671;28;19996;-22
2024/01/22 14:42:04;;;;;;;;;;;;;;;;;;5037469;28;19910;-20
2024/01/22 14:44:30;;;;;;;;;;;;;;;;;;5036560;28;19924;-21
2024/01/22 14:46:56;;;;;;;;;;;;;;;;;;5037633;28;19999;-22
2024/01/22 14:49:22;;;;;;;;;;;;;;;;;;5036362;28;19913;-22
2024/01/22 14:51:48;;;;;;;;;;;;;;;;;;5037342;28;20012;-22
2024/01/22 14:54:14;;;;;;;;;;;;;;;;;;5037399;28;19909;-20
2024/01/22 14:56:40;;;;;;;;;;;;;;;;;;5037283;28;20011;-22
2024/01/22 14:59:06;;;;;;;;;;;;;;;;;;5037545;28;19910;-22
2024/01/22 15:01:32;;;;;;;;;;;;;;;;;;5037121;28;20233;-21
2024/01/22 15:03:58;;;;;;;;;;;;;;;;;;5037045;28;20260;-22
2024/01/22 15:06:24;;;;;;;;;;;;;;;;;;5037102;28;19909;-22
2024/01/22 15:08:50;;;;;;;;;;;;;;;;;;5036086;28;20299;-20
2024/01/22 15:11:16;;;;;;;;;;;;;;;;;;5037362;28;19909;-22
2024/01/22 15:13:42;;;;;;;;;;;;;;;;;;5037146;28;19941;-22
2024/01/22 15:16:09;;;;;;;;;;;;;;;;;;5037077;28;20272;-22
2024/01/22 15:18:35;;;;;;;;;;;;;;;;;;5035856;28;19963;-24
2024/01/22 15:21:01;;;;;;;;;;;;;;;;;;5036781;28;19913;-23
2024/01/22 15:23:27;;;;;;;;;;;;;;;;;;5036622;28;19989;-24
2024/01/22 15:25:53;;;;;;;;;;;;;;;;;;5036554;28;19909;-21
2024/01/22 15:28:19;;;;;;;;;;;;;;;;;;5036833;28;20331;-20
2024/01/22 15:30:45;;;;;;;;;;;;;;;;;;5036712;28;19909;-20
2024/01/22 15:33:13;;;;;;;;;;;;;;;;;;5035454;28;20382;-23
2024/01/22 15:35:39;;;;;;;;;;;;;;;;;;5036535;28;19909;-21
2024/01/22 15:38:05;;;;;;;;;;;;;;;;;;5035490;28;19910;-22
2024/01/22 15:40:31;;;;;;;;;;;;;;;;;;5036326;28;19945;-22
2024/01/22 15:42:57;;;;;;;;;;;;;;;;;;5034886;28;19916;-22
2024/01/22 15:45:23;;;;;;;;;;;;;;;;;;5036142;28;19952;-22
2024/01/22 15:47:51;;;;;;;;;;;;;;;;;;5036413;28;20011;-21
2024/01/22 15:50:18;;;;;;;;;;;;;;;;;;5035113;28;19940;-22
2024/01/22 15:52:44;;;;;;;;;;;;;;;;;;5036563;28;19909;-23
2024/01/22 15:55:11;;;;;;;;;;;;;;;;;;5036245;28;19960;-23
2024/01/22 15:57:37;;;;;;;;;;;;;;;;;;5035055;28;19909;-21
2024/01/22 16:00:05;;;;;;;;;;;;;;;;;;5036350;28;20304;-21
2024/01/22 16:02:31;;;;;;;;;;;;;;;;;;5035814;28;19975;-21
2024/01/22 16:04:57;;;;;;;;;;;;;;;;;;5036230;28;20008;-21
2024/01/22 16:07:23;;;;;;;;;;;;;;;;;;5035022;28;20297;-22
2024/01/22 16:09:49;;;;;;;;;;;;;;;;;;5035120;28;19981;-22
2024/01/22 16:12:15;;;;;;;;;;;;;;;;;;5035875;28;19909;-23
2024/01/22 16:14:41;;;;;;;;;;;;;;;;;;5035849;28;19909;-21
2024/01/22 16:17:07;;;;;;;;;;;;;;;;;;5035052;28;19909;-21
2024/01/22 16:19:34;;;;;;;;;;;;;;;;;;5035542;28;19910;-20
2024/01/22 16:22:00;;;;;;;;;;;;;;;;;;5035423;28;19977;-22
2024/01/22 16:24:26;;;;;;;;;;;;;;;;;;5035523;28;19987;-21
2024/01/22 16:26:52;;;;;;;;;;;;;;;;;;5035512;28;19921;-21
2024/01/22 16:29:18;;;;;;;;;;;;;;;;;;5035407;28;20008;-23
2024/01/22 16:31:44;;;;;;;;;;;;;;;;;;5035228;28;19916;-21
2024/01/22 16:34:12;;;;;;;;;;;;;;;;;;5035283;28;20467;-22
2024/01/22 16:36:41;;;;;;;;;;;;;;;;;;5033868;28;19909;-21
2024/01/22 16:39:09;;;;;;;;;;;;;;;;;;5034933;28;19924;-22
2024/01/22 16:41:35;;;;;;;;;;;;;;;;;;5035386;28;19909;-20